CG Skipjack — NHOY — position and weather

sailwx.info

Track history (hours):
 
Tides and Currents Weather Stations Pressure Air Temp Water Temp Dewpoint Dewpoint Depression Visibility Wind Speed Wind Dir Waves Ship Positions

CG Skipjack

Last reported at 2017-Sep-16 23:41 UTC. Time now 2017-Sep-21 03:06 UTC.
Position N 29°35' W 092°18'.

Length 26 m; draft 1.7 m.

Type: SAR. MMSI: 366999611.

Date/timePositionNaut miles runAvg speedWind from/ knotsBaromVisibWave heightAir tempDewpointWater temp
2017-Sep-16 23:41N 29°35' W 092°18'421.0
2017-Sep-16 23:30N 29°38' W 092°16'918.3
2017-Sep-16 23:00N 29°46' W 092°11'3 5.2
2017-Sep-16 22:30N 29°48' W 092°09'1 2.0
2017-Sep-16 22:00N 29°49' W 092°08'  
2017-Sep-10 15:06N 29°53' W 092°07'1 5.7
2017-Sep-10 14:57N 29°53' W 092°08'5 5.8
2017-Sep-10 14:00N 29°48' W 092°09'1 1.6
2017-Sep-10 13:29N 29°47' W 092°09'815.1
2017-Sep-10 12:59N 29°41' W 092°15'4 0.1
2017-Sep-08 18:06N 29°38' W 092°16'1 9.9
2017-Sep-08 18:00N 29°38' W 092°16'510.2
2017-Sep-08 17:30N 29°43' W 092°15'5 9.9
2017-Sep-08 17:00N 29°46' W 092°10'3 6.3
2017-Sep-08 16:30N 29°49' W 092°08'  
Track history (hours):
 
Tides and Currents Weather Stations Pressure Air Temp Water Temp Dewpoint Dewpoint Depression Visibility Wind Speed Wind Dir Waves Ship Positions

CG Skipjack

Last reported at 2017-Sep-16 23:41 UTC. Time now 2017-Sep-21 03:06 UTC.
Position N 29°35' W 092°18'.

Length 26 m; draft 1.7 m.

Type: SAR. MMSI: 366999611.

Date/timePositionNaut miles runAvg speedWind from/ knotsBaromVisibWave heightAir tempDewpointWater temp
2017-Sep-16 23:41N 29°35' W 092°18'421.0
2017-Sep-16 23:30N 29°38' W 092°16'918.3
2017-Sep-16 23:00N 29°46' W 092°11'3 5.2
2017-Sep-16 22:30N 29°48' W 092°09'1 2.0
2017-Sep-16 22:00N 29°49' W 092°08'  
2017-Sep-10 15:06N 29°53' W 092°07'1 5.7
2017-Sep-10 14:57N 29°53' W 092°08'5 5.8
2017-Sep-10 14:00N 29°48' W 092°09'1 1.6
2017-Sep-10 13:29N 29°47' W 092°09'815.1
2017-Sep-10 12:59N 29°41' W 092°15'4 0.1
2017-Sep-08 18:06N 29°38' W 092°16'1 9.9
2017-Sep-08 18:00N 29°38' W 092°16'510.2
2017-Sep-08 17:30N 29°43' W 092°15'5 9.9
2017-Sep-08 17:00N 29°46' W 092°10'3 6.3
2017-Sep-08 16:30N 29°49' W 092°08'  

Dump ship's entire track history